Time;durP1;ratioP1;P1;durP2;ratioP2;P2;SDS_P1;SDS_P2;PMS_P1;PMS_P2;Temp;Humidity;BMP_temperature;BMP_pressure;BME280_temperature;BME280_humidity;BME280_pressure;Samples;Min_cycle;Max_cycle;Signal;HPM_P1;HPM_P2
2022/01/29 00:00:22;;;;;;;38.72;15.43;;;;;;;-3.11;66.20;98726.56;5015612;28;20549;-81
2022/01/29 00:02:48;;;;;;;45.55;18.17;;;;;;;-3.13;67.51;98707.84;4998098;28;20386;-82
2022/01/29 00:05:14;;;;;;;34.70;15.30;;;;;;;-2.87;67.35;98739.13;4981956;28;20048;-82
2022/01/29 00:07:42;;;;;;;33.60;15.00;;;;;;;-2.91;66.43;98728.81;5015223;28;20041;-78
2022/01/29 00:10:12;;;;;;;36.88;15.05;;;;;;;-3.11;66.38;98728.28;5019040;28;20033;-80
2022/01/29 00:12:38;;;;;;;39.80;15.73;;;;;;;-3.30;66.31;98714.13;5007104;28;20065;-80
2022/01/29 00:15:05;;;;;;;38.63;16.05;;;;;;;-3.45;66.35;98735.78;5004923;28;20042;-79
2022/01/29 00:17:34;;;;;;;40.45;14.82;;;;;;;-3.42;67.46;98724.81;5022854;28;20048;-81
2022/01/29 00:19:59;;;;;;;35.88;14.35;;;;;;;-3.27;67.37;98725.25;5018766;28;20041;-82
2022/01/29 00:22:26;;;;;;;41.45;16.23;;;;;;;-3.23;66.58;98704.19;5014546;28;20044;-77
2022/01/29 00:24:52;;;;;;;35.97;16.02;;;;;;;-3.38;66.46;98714.75;5014216;28;20132;-81
2022/01/29 00:27:20;;;;;;;38.53;15.55;;;;;;;-3.18;67.26;98730.63;5014775;28;20092;-81
2022/01/29 00:29:45;;;;;;;35.13;15.32;;;;;;;-3.07;66.90;98718.22;4999579;28;20041;-79
2022/01/29 00:32:12;;;;;;;36.25;15.40;;;;;;;-3.07;67.60;98690.22;4999584;28;20285;-80
2022/01/29 00:34:39;;;;;;;39.45;15.32;;;;;;;-2.84;67.03;98729.84;5039784;28;20041;-78
2022/01/29 00:37:06;;;;;;;34.47;14.82;;;;;;;-3.05;65.80;98716.56;5044452;28;20401;-78
2022/01/29 00:39:32;;;;;;;38.28;16.05;;;;;;;-3.24;66.24;98730.44;5022921;28;20041;-83
2022/01/29 00:41:58;;;;;;;34.95;14.95;;;;;;;-3.51;66.24;98717.78;5018693;28;20599;-82
2022/01/29 00:44:24;;;;;;;37.88;15.82;;;;;;;-3.35;67.26;98727.59;4985299;28;20041;-80
2022/01/29 00:46:49;;;;;;;36.13;15.80;;;;;;;-3.45;66.91;98714.53;5035693;28;20034;-81
2022/01/29 00:49:15;;;;;;;39.45;15.85;;;;;;;-3.44;66.43;98722.25;5001641;28;20420;-81
2022/01/29 00:51:41;;;;;;;40.17;16.10;;;;;;;-3.33;67.49;98720.00;5000814;28;20056;-81
2022/01/29 00:54:07;;;;;;;36.13;15.20;;;;;;;-3.29;66.78;98708.22;5013821;28;20523;-79
2022/01/29 00:56:33;;;;;;;38.03;14.68;;;;;;;-3.46;66.36;98692.47;5014301;28;20069;-78
2022/01/29 00:58:59;;;;;;;41.90;15.68;;;;;;;-3.36;67.09;98715.69;5014329;28;20069;-81
2022/01/29 01:01:25;;;;;;;37.65;14.90;;;;;;;-3.60;65.91;98714.94;5015565;28;20041;-80
2022/01/29 01:03:51;;;;;;;41.50;15.48;;;;;;;-3.57;67.17;98695.56;5034655;28;20097;-81
2022/01/29 01:06:17;;;;;;;39.97;14.65;;;;;;;-3.53;65.70;98709.22;5001256;28;20552;-80
2022/01/29 01:08:43;;;;;;;36.78;14.55;;;;;;;-3.87;66.35;98691.25;5017209;28;20128;-82
2022/01/29 01:11:09;;;;;;;36.53;15.13;;;;;;;-3.86;67.12;98710.78;5018136;28;20065;-81
2022/01/29 01:13:35;;;;;;;40.05;15.82;;;;;;;-3.71;67.13;98723.13;5017718;28;20064;-82
2022/01/29 01:16:02;;;;;;;38.80;15.85;;;;;;;-3.61;67.41;98700.50;5001567;28;20056;-78
2022/01/29 01:18:28;;;;;;;35.80;14.70;;;;;;;-3.49;66.79;98713.59;4993777;28;20025;-79
2022/01/29 01:20:53;;;;;;;35.08;15.40;;;;;;;-3.50;66.72;98702.53;5018204;28;20433;-79
2022/01/29 01:23:20;;;;;;;32.92;14.43;;;;;;;-3.54;66.04;98710.03;5044093;28;20045;-82
2022/01/29 01:25:46;;;;;;;38.25;15.45;;;;;;;-3.51;67.70;98711.00;5020213;28;20048;-79
2022/01/29 01:28:12;;;;;;;44.17;16.30;;;;;;;-3.33;68.17;98695.41;5019840;28;20056;-80
2022/01/29 01:30:38;;;;;;;35.10;14.45;;;;;;;-3.35;66.33;98698.75;5035284;28;20065;-84
2022/01/29 01:33:04;;;;;;;35.38;15.93;;;;;;;-3.16;66.79;98723.03;5019207;28;20528;-84
2022/01/29 01:35:40;;;;;;;39.90;15.45;;;;;;;-3.23;66.97;98710.97;5000115;28;20049;-80
2022/01/29 01:38:15;;;;;;;38.30;15.63;;;;;;;-3.10;66.39;98720.66;5017346;28;20095;-81
2022/01/29 01:40:44;;;;;;;39.08;15.57;;;;;;;-3.25;65.93;98726.16;5001912;28;20493;-79
2022/01/29 01:43:10;;;;;;;43.33;16.83;;;;;;;-3.30;67.33;98699.72;5001264;28;20049;-80
2022/01/29 01:45:36;;;;;;;33.78;15.02;;;;;;;-3.14;66.79;98700.19;5001022;28;20042;-82
2022/01/29 01:48:05;;;;;;;63.60;18.90;;;;;;;-3.08;66.90;98713.94;5018021;28;20037;-80
2022/01/29 01:50:31;;;;;;;37.42;14.73;;;;;;;-2.97;67.27;98721.00;5034711;28;20390;-77
2022/01/29 01:52:57;;;;;;;37.40;16.40;;;;;;;-2.77;67.30;98726.66;5000418;28;20092;-78
2022/01/29 01:55:24;;;;;;;38.78;15.80;;;;;;;-2.90;66.70;98710.19;5016476;28;20128;-81
2022/01/29 01:57:50;;;;;;;42.75;16.17;;;;;;;-2.72;67.16;98720.84;4984294;28;20075;-79
2022/01/29 02:00:15;;;;;;;36.10;14.02;;;;;;;-2.84;66.04;98709.47;5017504;28;20041;-83
2022/01/29 02:02:41;;;;;;;38.42;15.60;;;;;;;-3.03;66.72;98699.66;5033512;28;20084;-80
2022/01/29 02:05:09;;;;;;;33.35;14.20;;;;;;;-2.88;66.85;98713.63;5000040;28;20045;-80
2022/01/29 02:07:35;;;;;;;39.15;16.58;;;;;;;-2.92;67.92;98686.34;5034040;28;20207;-80
2022/01/29 02:10:03;;;;;;;32.15;14.65;;;;;;;-2.91;66.89;98695.72;5033644;28;20053;-79
2022/01/29 02:12:30;;;;;;;37.13;14.85;;;;;;;-3.05;66.79;98670.75;4999472;28;20045;-81
2022/01/29 02:15:01;;;;;;;34.63;13.85;;;;;;;-2.93;66.07;98730.44;5015368;28;20072;-80
2022/01/29 02:17:28;;;;;;;31.67;14.15;;;;;;;-3.10;66.22;98725.75;5033149;28;20045;-79
2022/01/29 02:19:54;;;;;;;30.77;13.38;;;;;;;-3.01;67.26;98712.41;5034005;28;20047;-81
2022/01/29 02:22:19;;;;;;;36.03;14.00;;;;;;;-3.00;66.03;98705.66;5015172;28;20698;-80
2022/01/29 02:24:45;;;;;;;34.70;14.32;;;;;;;-3.09;66.40;98714.75;5033433;28;20051;-80
2022/01/29 02:27:11;;;;;;;32.08;14.40;;;;;;;-3.00;66.48;98718.41;5015011;28;20470;-78
2022/01/29 02:29:36;;;;;;;36.22;15.38;;;;;;;-3.12;67.55;98712.13;4998641;28;20049;-79
2022/01/29 02:32:03;;;;;;;33.63;15.52;;;;;;;-2.88;67.54;98719.59;5036802;28;20041;-82
2022/01/29 02:34:31;;;;;;;35.30;15.55;;;;;;;-2.70;67.46;98718.38;5033175;28;20399;-78
2022/01/29 02:36:57;;;;;;;38.72;15.75;;;;;;;-2.85;67.04;98703.53;5014940;28;20816;-80
2022/01/29 02:39:23;;;;;;;37.85;15.05;;;;;;;-2.98;67.26;98673.47;4998589;28;20259;-81
2022/01/29 02:41:49;;;;;;;34.03;13.77;;;;;;;-2.78;67.32;98699.47;4998696;28;20033;-78
2022/01/29 02:44:20;;;;;;;37.47;15.50;;;;;;;-2.74;67.07;98691.09;5015256;28;20037;-80
2022/01/29 02:49:13;;;;;;;34.50;14.63;;;;;;;-2.75;66.83;98687.66;4998773;28;20527;-79
2022/01/29 02:51:53;;;;;;;35.50;14.95;;;;;;;-2.64;66.50;98710.03;5032846;28;20045;-78
2022/01/29 02:54:19;;;;;;;36.38;15.25;;;;;;;-2.79;66.79;98711.34;5015464;28;20724;-80
2022/01/29 02:56:45;;;;;;;36.15;15.30;;;;;;;-2.94;65.58;98713.44;4999407;28;20037;-78
2022/01/29 02:59:12;;;;;;;39.13;15.48;;;;;;;-3.46;66.31;98669.56;5027052;28;20081;-77
2022/01/29 03:01:38;;;;;;;34.83;14.82;;;;;;;-3.33;66.81;98685.25;5027291;28;20041;-79
2022/01/29 03:04:04;;;;;;;36.05;14.15;;;;;;;-3.36;65.75;98690.22;5002820;28;20072;-80
2022/01/29 03:06:30;;;;;;;35.80;14.98;;;;;;;-3.33;66.23;98718.31;5033476;28;20052;-81
2022/01/29 03:08:57;;;;;;;35.78;15.50;;;;;;;-3.34;66.75;98723.38;4997720;28;20049;-78
2022/01/29 03:11:23;;;;;;;40.17;15.75;;;;;;;-3.42;67.09;98720.56;5014775;28;20091;-80
2022/01/29 03:13:50;;;;;;;40.97;15.93;;;;;;;-3.42;67.01;98719.72;5014813;28;20041;-83
2022/01/29 03:16:17;;;;;;;40.83;16.40;;;;;;;-3.31;67.83;98697.16;4998412;28;20045;-80
2022/01/29 03:18:42;;;;;;;45.55;16.75;;;;;;;-3.06;67.01;98732.66;5032498;28;20116;-81
2022/01/29 03:21:08;;;;;;;37.05;16.02;;;;;;;-3.28;66.78;98717.59;5014930;28;20132;-80
2022/01/29 03:23:34;;;;;;;34.70;15.30;;;;;;;-3.21;67.32;98722.06;5031185;28;20037;-80
2022/01/29 03:26:00;;;;;;;43.08;17.85;;;;;;;-2.99;67.46;98735.41;5032596;28;20037;-80
2022/01/29 03:28:29;;;;;;;38.50;15.60;;;;;;;-3.35;65.94;98712.31;4998429;28;20350;-79
2022/01/29 03:30:55;;;;;;;40.15;15.95;;;;;;;-3.48;66.74;98720.41;5032237;28;20124;-79
2022/01/29 03:33:24;;;;;;;36.22;15.93;;;;;;;-3.72;66.76;98720.50;4981715;28;20105;-78
2022/01/29 03:35:50;;;;;;;41.15;17.52;;;;;;;-3.64;67.44;98734.34;5014162;28;20037;-81
2022/01/29 03:38:16;;;;;;;40.25;16.00;;;;;;;-3.83;66.35;98741.41;4998159;28;20136;-78
2022/01/29 03:40:45;;;;;;;41.45;16.25;;;;;;;-3.93;67.26;98724.09;4999331;28;20041;-79
2022/01/29 03:43:14;;;;;;;38.60;15.50;;;;;;;-3.78;67.10;98731.34;5014255;28;20034;-79
2022/01/29 03:45:40;;;;;;;42.00;16.02;;;;;;;-3.91;66.53;98732.66;5031748;28;20052;-81
2022/01/29 03:48:08;;;;;;;50.72;18.30;;;;;;;-3.98;67.70;98733.28;4998423;28;20041;-81
2022/01/29 03:50:36;;;;;;;39.75;16.60;;;;;;;-3.85;67.44;98742.13;5014321;28;20037;-79
2022/01/29 03:53:02;;;;;;;43.30;16.83;;;;;;;-3.71;68.27;98730.75;5013872;28;20068;-79
2022/01/29 03:55:28;;;;;;;40.65;16.42;;;;;;;-3.80;67.30;98715.19;5014824;28;20045;-78
2022/01/29 03:57:54;;;;;;;44.28;17.25;;;;;;;-3.88;67.03;98699.69;5014298;28;20043;-81
2022/01/29 04:00:20;;;;;;;43.35;18.33;;;;;;;-3.63;67.10;98739.47;5014481;28;20041;-81
2022/01/29 04:02:45;;;;;;;46.70;18.88;;;;;;;-3.70;67.62;98711.25;5013750;28;20389;-82
2022/01/29 04:05:11;;;;;;;41.22;17.17;;;;;;;-3.58;66.56;98728.56;5014116;28;20414;-79
2022/01/29 04:07:38;;;;;;;40.67;17.77;;;;;;;-3.75;66.92;98716.22;5014059;28;20537;-82
2022/01/29 04:10:04;;;;;;;48.45;18.80;;;;;;;-3.56;68.34;98701.50;5032124;28;20049;-78
2022/01/29 04:12:36;;;;;;;52.83;19.60;;;;;;;-3.22;68.60;98711.00;5014352;28;20056;-78
2022/01/29 04:15:02;;;;;;;49.40;18.55;;;;;;;-3.14;68.19;98712.91;5016047;28;20049;-81
2022/01/29 04:17:28;;;;;;;54.78;19.80;;;;;;;-2.85;68.17;98736.63;5032485;28;20095;-79
2022/01/29 04:19:54;;;;;;;51.03;20.17;;;;;;;-2.91;66.65;98734.78;5014800;28;20045;-79
2022/01/29 04:22:20;;;;;;;59.25;22.40;;;;;;;-3.25;67.73;98693.09;5032109;28;20068;-82
2022/01/29 04:24:46;;;;;;;58.47;22.95;;;;;;;-3.12;67.32;98731.63;5013645;28;20460;-82
2022/01/29 04:27:21;;;;;;;52.60;20.60;;;;;;;-3.11;66.68;98726.56;5031869;28;20088;-81
2022/01/29 04:29:59;;;;;;;56.00;21.05;;;;;;;-3.27;67.53;98740.53;4999008;28;20060;-78
2022/01/29 04:32:54;;;;;;;55.15;20.00;;;;;;;-3.17;67.43;98731.47;4997846;28;20091;-81
2022/01/29 04:35:11;;;;;;;45.45;18.65;;;;;;;-3.57;65.96;98727.75;4999301;28;20037;-79
2022/01/29 04:37:36;;;;;;;46.08;18.67;;;;;;;-3.83;66.67;98715.97;5037572;28;20103;-81
2022/01/29 04:40:04;;;;;;;46.13;19.88;;;;;;;-3.66;67.78;98725.78;5057090;28;20044;-78
2022/01/29 04:42:30;;;;;;;45.10;18.98;;;;;;;-3.36;68.04;98738.56;5017788;28;20077;-76
2022/01/29 04:44:56;;;;;;;44.15;18.48;;;;;;;-3.31;67.31;98745.50;5004393;28;20064;-81
2022/01/29 04:47:22;;;;;;;43.92;17.08;;;;;;;-3.47;66.80;98734.88;5020826;28;20100;-80
2022/01/29 04:49:47;;;;;;;45.72;19.38;;;;;;;-3.44;68.06;98729.88;5004490;28;20090;-81
2022/01/29 04:52:13;;;;;;;48.20;19.08;;;;;;;-3.37;67.62;98738.53;5022541;28;20050;-78
2022/01/29 04:54:39;;;;;;;47.53;18.67;;;;;;;-3.49;66.92;98737.34;5035251;28;20528;-77
2022/01/29 04:57:05;;;;;;;53.33;20.75;;;;;;;-3.39;68.15;98738.47;5003393;28;20037;-78
2022/01/29 04:59:30;;;;;;;50.30;20.67;;;;;;;-3.19;67.58;98733.13;5032917;28;20041;-79
2022/01/29 05:01:56;;;;;;;46.35;19.95;;;;;;;-3.69;67.18;98682.47;5037754;28;20041;-81
2022/01/29 05:04:22;;;;;;;54.30;21.58;;;;;;;-3.30;68.09;98742.13;5037849;28;20037;-77
2022/01/29 05:06:48;;;;;;;56.85;20.55;;;;;;;-3.15;68.15;98740.03;5017553;28;20041;-78
2022/01/29 05:09:14;;;;;;;51.53;20.10;;;;;;;-3.01;67.96;98735.34;5049804;28;20041;-78
2022/01/29 05:11:42;;;;;;;43.53;19.33;;;;;;;-2.78;67.74;98753.81;5031215;28;20049;-77
2022/01/29 05:14:16;;;;;;;47.90;20.23;;;;;;;-2.78;67.79;98738.53;5031140;28;20061;-77
2022/01/29 05:26:50;;;;;;;53.92;21.33;;;;;;;-2.92;67.04;98727.97;5033983;28;20052;-80
2022/01/29 05:27:43;;;;;;;54.88;22.25;;;;;;;-3.44;66.95;98741.72;5038085;28;20179;-78
2022/01/29 05:30:10;;;;;;;55.28;21.88;;;;;;;-3.19;67.89;98756.00;5019786;28;20033;-79
2022/01/29 05:32:35;;;;;;;54.50;22.48;;;;;;;-3.52;67.83;98675.34;5037805;28;20041;-80
2022/01/29 05:35:01;;;;;;;51.10;19.90;;;;;;;-3.10;67.91;98713.03;5019447;28;20098;-80
2022/01/29 05:37:29;;;;;;;53.35;21.55;;;;;;;-2.90;67.66;98723.78;5035622;28;20045;-79
2022/01/29 05:39:54;;;;;;;48.97;20.15;;;;;;;-2.70;67.03;98748.06;5017480;28;20034;-82
2022/01/29 05:42:20;;;;;;;50.40;20.73;;;;;;;-2.95;67.19;98719.38;5000112;28;20035;-79
2022/01/29 05:44:46;;;;;;;43.92;18.63;;;;;;;-2.85;66.97;98741.72;5034672;28;20405;-79
2022/01/29 05:47:11;;;;;;;48.28;20.45;;;;;;;-2.68;67.63;98757.50;4983772;28;20041;-77
2022/01/29 05:49:39;;;;;;;45.90;20.55;;;;;;;-2.59;67.92;98751.78;5018409;28;20045;-79
2022/01/29 05:52:05;;;;;;;50.13;20.40;;;;;;;-2.62;67.79;98727.06;5037019;28;20101;-79
2022/01/29 05:54:31;;;;;;;53.15;20.73;;;;;;;-2.57;66.73;98734.84;5018756;28;20052;-80
2022/01/29 05:56:57;;;;;;;56.97;21.30;;;;;;;-2.74;66.65;98763.25;5015825;28;20480;-77
2022/01/29 05:59:23;;;;;;;46.88;19.15;;;;;;;-2.73;66.94;98770.06;5033400;28;20037;-78
2022/01/29 06:01:48;;;;;;;51.65;19.95;;;;;;;-2.75;67.04;98756.44;5015896;28;20041;-78
2022/01/29 06:04:14;;;;;;;46.88;18.70;;;;;;;-2.87;66.28;98761.19;5001243;28;20030;-80
2022/01/29 06:06:40;;;;;;;49.97;21.98;;;;;;;-2.84;67.38;98761.28;5015995;28;20048;-81
2022/01/29 06:09:06;;;;;;;44.45;19.38;;;;;;;-2.68;66.37;98774.44;5002543;28;20052;-79
2022/01/29 06:11:32;;;;;;;48.55;21.10;;;;;;;-2.77;67.18;98777.59;5035167;28;20451;-80
2022/01/29 06:14:22;;;;;;;46.15;18.90;;;;;;;-3.57;67.26;98624.34;5018047;28;20047;-79
2022/01/29 06:16:48;;;;;;;43.78;18.30;;;;;;;-2.45;66.68;98792.91;5035088;28;20130;-81
2022/01/29 06:19:14;;;;;;;45.22;18.77;;;;;;;-2.32;66.71;98778.81;5030875;28;20286;-78
2022/01/29 06:21:40;;;;;;;45.88;19.00;;;;;;;-2.55;66.31;98766.34;5049598;28;20041;-78
2022/01/29 06:24:05;;;;;;;46.03;19.25;;;;;;;-2.45;66.88;98765.75;5026733;28;20559;-76
2022/01/29 06:26:31;;;;;;;44.90;19.33;;;;;;;-2.60;66.56;98729.66;5003455;28;20111;-78
2022/01/29 06:28:59;;;;;;;41.60;18.02;;;;;;;-2.52;66.40;98712.03;5016358;28;20045;-81
2022/01/29 06:31:25;;;;;;;44.22;19.15;;;;;;;-2.18;67.22;98739.25;5016634;28;20045;-76
2022/01/29 06:33:53;;;;;;;44.50;19.02;;;;;;;-2.04;66.93;98736.16;5025978;28;20041;-78
2022/01/29 06:36:20;;;;;;;49.33;20.30;;;;;;;-1.83;66.86;98734.13;5015740;28;20037;-80
2022/01/29 06:38:48;;;;;;;45.83;20.15;;;;;;;-2.40;64.39;98676.66;5015270;28;20041;-78
2022/01/29 06:41:14;;;;;;;46.65;21.02;;;;;;;-3.00;64.58;98667.47;5034363;28;20044;-82
2022/01/29 06:43:45;;;;;;;46.33;19.58;;;;;;;-3.69;65.36;98585.84;4999720;28;20052;-80
2022/01/29 06:46:12;;;;;;;51.65;21.52;;;;;;;-2.68;66.25;98729.47;4982715;28;20064;-79
2022/01/29 06:48:39;;;;;;;52.83;21.15;;;;;;;-2.66;66.92;98704.03;5033898;28;20051;-79
2022/01/29 06:51:05;;;;;;;47.05;20.38;;;;;;;-2.22;66.75;98747.63;5017601;28;20045;-79
2022/01/29 06:53:31;;;;;;;47.70;19.90;;;;;;;-2.33;66.25;98706.59;4998891;28;20420;-75
2022/01/29 06:55:57;;;;;;;49.80;22.10;;;;;;;-1.68;66.46;98771.91;5016581;28;20091;-80
2022/01/29 06:58:24;;;;;;;49.65;19.95;;;;;;;-1.45;66.36;98791.16;5016699;28;20049;-80
2022/01/29 07:00:53;;;;;;;45.58;20.38;;;;;;;-1.93;64.95;98744.97;4998927;28;20412;-82
2022/01/29 07:03:19;;;;;;;48.47;20.10;;;;;;;-1.75;65.89;98764.94;4998150;28;20041;-78
2022/01/29 07:05:44;;;;;;;51.05;21.50;;;;;;;-2.24;64.69;98743.34;5031860;28;20052;-78
2022/01/29 07:08:12;;;;;;;48.45;20.60;;;;;;;-2.28;66.01;98771.28;5000159;28;20045;-80
2022/01/29 07:10:38;;;;;;;47.60;20.50;;;;;;;-2.06;66.63;98788.81;5034619;28;20065;-81
2022/01/29 07:13:07;;;;;;;52.60;20.48;;;;;;;-2.02;66.87;98765.13;5003599;28;20086;-77
2022/01/29 07:15:33;;;;;;;49.80;21.25;;;;;;;-1.79;64.52;98782.69;4988423;28;20033;-82
2022/01/29 07:17:59;;;;;;;53.10;21.90;;;;;;;-2.12;65.66;98757.25;5023467;28;20044;-80
2022/01/29 07:20:25;;;;;;;51.95;21.83;;;;;;;-1.82;66.45;98768.19;5007445;28;20124;-79
2022/01/29 07:22:51;;;;;;;62.80;23.48;;;;;;;-2.21;63.37;98792.69;5005205;28;20068;-81
2022/01/29 07:25:20;;;;;;;61.53;24.50;;;;;;;-2.35;66.16;98782.13;5001128;28;20033;-80
2022/01/29 07:27:53;;;;;;;56.22;23.17;;;;;;;-2.87;65.25;98717.91;4983302;28;20053;-82
2022/01/29 07:30:25;;;;;;;52.45;21.98;;;;;;;-3.28;65.89;98647.19;5016689;28;20505;-81
2022/01/29 07:32:51;;;;;;;50.25;22.13;;;;;;;-2.45;66.20;98770.00;5015823;28;20033;-80
2022/01/29 07:35:16;;;;;;;56.63;23.63;;;;;;;-2.18;66.88;98774.06;5000256;28;20044;-83
2022/01/29 07:37:42;;;;;;;58.35;23.55;;;;;;;-1.97;66.12;98783.97;5033996;28;20048;-81
2022/01/29 07:40:17;;;;;;;55.45;22.83;;;;;;;-2.42;66.38;98716.53;4983791;28;20037;-83
2022/01/29 07:43:13;;;;;;;52.13;22.13;;;;;;;-2.39;66.40;98697.94;5018777;28;20286;-80
2022/01/29 07:45:42;;;;;;;50.60;21.40;;;;;;;-2.16;66.39;98689.16;4999853;28;20061;-79
2022/01/29 07:48:08;;;;;;;52.88;22.15;;;;;;;-2.60;65.56;98605.69;5016282;28;20045;-81
2022/01/29 07:50:34;;;;;;;51.92;22.05;;;;;;;-1.42;65.32;98815.06;5000470;28;20041;-78
2022/01/29 07:53:00;;;;;;;53.80;23.40;;;;;;;-1.76;65.97;98763.19;5016041;28;20441;-81
2022/01/29 07:55:29;;;;;;;58.72;23.40;;;;;;;-1.30;65.91;98814.47;5015600;28;20524;-81
2022/01/29 07:58:07;;;;;;;50.83;21.80;;;;;;;-1.13;65.85;98793.56;4989442;28;20025;-80
2022/01/29 08:00:34;;;;;;;53.28;21.27;;;;;;;-1.05;65.87;98769.06;5053439;28;20041;-79
2022/01/29 08:03:00;;;;;;;47.17;21.27;;;;;;;-0.87;64.91;98791.56;5009060;28;20097;-80
2022/01/29 08:05:26;;;;;;;60.70;22.17;;;;;;;-0.79;65.63;98797.69;5000795;28;20446;-79
2022/01/29 08:07:55;;;;;;;50.00;21.73;;;;;;;-0.74;65.47;98781.59;5032746;28;20052;-81
2022/01/29 08:10:20;;;;;;;44.55;21.77;;;;;;;-0.74;64.79;98799.50;5015370;28;20041;-80
2022/01/29 08:12:55;;;;;;;47.85;22.48;;;;;;;-1.08;64.90;98735.81;5032644;28;20137;-83
2022/01/29 08:15:21;;;;;;;53.13;22.30;;;;;;;-0.97;64.95;98720.69;5000053;28;20087;-80
2022/01/29 08:17:47;;;;;;;49.47;21.40;;;;;;;-0.99;64.03;98743.63;5032213;28;20044;-79
2022/01/29 08:20:16;;;;;;;51.17;22.15;;;;;;;-0.75;64.76;98775.63;4999492;28;20045;-82
2022/01/29 08:22:47;;;;;;;52.97;22.27;;;;;;;-1.14;64.92;98684.59;4999360;28;20136;-80
2022/01/29 08:25:15;;;;;;;50.03;22.02;;;;;;;-0.65;63.75;98769.88;5015237;28;20046;-80
2022/01/29 08:27:41;;;;;;;52.88;21.83;;;;;;;-0.91;64.09;98779.56;5001659;28;20145;-79
2022/01/29 08:30:07;;;;;;;52.47;21.98;;;;;;;-0.92;63.02;98798.28;5032620;28;20073;-81
2022/01/29 08:32:41;;;;;;;49.67;21.23;;;;;;;-0.99;64.57;98799.81;5015437;28;20132;-81
2022/01/29 08:35:13;;;;;;;46.20;20.85;;;;;;;-0.91;64.36;98780.44;5015389;28;20044;-82
2022/01/29 08:37:39;;;;;;;51.17;21.40;;;;;;;-0.70;64.16;98784.25;5032445;28;20045;-81
2022/01/29 08:40:07;;;;;;;45.00;20.05;;;;;;;-0.54;64.40;98780.31;5031443;28;20083;-80
2022/01/29 08:42:33;;;;;;;47.88;19.20;;;;;;;-0.41;64.11;98780.53;4997453;28;20099;-82
2022/01/29 08:45:00;;;;;;;43.40;20.33;;;;;;;-0.27;63.72;98776.56;5013562;28;20041;-80
2022/01/29 08:47:26;;;;;;;44.53;20.90;;;;;;;-0.13;64.30;98794.72;5013628;28;20049;-80
2022/01/29 08:49:52;;;;;;;50.90;21.17;;;;;;;-0.19;63.70;98769.88;5023056;28;20037;-78
2022/01/29 08:52:18;;;;;;;51.17;21.45;;;;;;;-0.10;63.78;98766.59;5031023;28;20060;-80
2022/01/29 08:54:44;;;;;;;55.50;21.98;;;;;;;-0.02;63.38;98793.19;5030835;28;20061;-79
2022/01/29 08:57:11;;;;;;;52.50;21.90;;;;;;;0.11;63.92;98785.75;4998639;28;20038;-81
2022/01/29 08:59:37;;;;;;;52.85;21.77;;;;;;;0.09;63.78;98751.59;4997489;28;20119;-79
2022/01/29 09:02:03;;;;;;;48.30;21.65;;;;;;;0.35;63.72;98792.97;4997713;28;20041;-81
2022/01/29 09:04:29;;;;;;;43.78;20.17;;;;;;;0.24;63.50;98762.06;4997847;28;20048;-79
2022/01/29 09:06:55;;;;;;;48.15;20.33;;;;;;;0.34;63.83;98754.53;5033245;28;20046;-78
2022/01/29 09:09:25;;;;;;;46.75;20.73;;;;;;;0.48;63.65;98759.88;5014995;28;20045;-79
2022/01/29 09:11:51;;;;;;;47.55;20.40;;;;;;;0.45;62.90;98738.50;5015466;28;20037;-82
2022/01/29 09:14:18;;;;;;;48.17;20.42;;;;;;;0.75;63.45;98767.97;5014854;28;20553;-80
2022/01/29 09:16:44;;;;;;;52.92;20.65;;;;;;;0.73;63.11;98763.66;5021234;28;20037;-79
2022/01/29 09:19:10;;;;;;;48.92;19.80;;;;;;;0.82;62.36;98776.59;4991455;28;20067;-81
2022/01/29 09:21:36;;;;;;;47.67;20.75;;;;;;;0.97;62.70;98803.28;4989610;28;20170;-78
2022/01/29 09:24:02;;;;;;;40.75;19.95;;;;;;;0.79;62.79;98750.06;5004365;28;20553;-82
2022/01/29 09:26:28;;;;;;;42.95;20.30;;;;;;;1.18;62.70;98807.81;5002462;28;20413;-78
2022/01/29 09:28:54;;;;;;;51.10;21.85;;;;;;;1.07;62.00;98784.59;5000385;28;20568;-80
2022/01/29 09:31:21;;;;;;;55.85;24.00;;;;;;;1.01;62.43;98764.91;5017021;28;20473;-79
2022/01/29 09:33:49;;;;;;;56.80;24.77;;;;;;;1.06;62.04;98762.38;5000789;28;20037;-79
2022/01/29 09:36:15;;;;;;;61.58;27.25;;;;;;;1.24;61.88;98786.50;5001277;28;20037;-80
2022/01/29 09:38:41;;;;;;;58.97;25.83;;;;;;;1.04;62.07;98762.38;5024779;28;20048;-78
2022/01/29 09:41:10;;;;;;;61.55;27.80;;;;;;;0.92;61.48;98754.50;5053591;28;20041;-81
2022/01/29 09:43:36;;;;;;;62.60;27.40;;;;;;;1.25;61.75;98801.06;5026632;28;20047;-81
2022/01/29 09:46:02;;;;;;;59.40;26.55;;;;;;;1.20;61.89;98788.19;5038921;28;20123;-79
2022/01/29 09:48:29;;;;;;;61.47;27.77;;;;;;;1.39;62.02;98812.38;4984447;28;20069;-80
2022/01/29 09:50:57;;;;;;;58.20;26.65;;;;;;;1.29;61.62;98803.69;5001943;28;20064;-80
2022/01/29 09:53:24;;;;;;;59.85;26.75;;;;;;;1.23;61.75;98793.38;5036558;28;20416;-79
2022/01/29 09:55:49;;;;;;;58.58;25.58;;;;;;;0.94;61.32;98773.31;5020278;28;20067;-79
2022/01/29 09:58:15;;;;;;;56.83;24.15;;;;;;;1.17;61.60;98816.34;5018826;28;20064;-77
2022/01/29 10:00:42;;;;;;;57.97;25.80;;;;;;;1.15;61.52;98805.19;5001465;28;20611;-79
2022/01/29 10:03:11;;;;;;;53.95;24.35;;;;;;;1.14;61.21;98813.72;5037102;28;20037;-78
2022/01/29 10:05:40;;;;;;;60.15;25.85;;;;;;;1.15;61.43;98808.66;5021475;28;20469;-77
2022/01/29 10:08:07;;;;;;;59.85;25.65;;;;;;;1.09;61.36;98795.75;5021260;28;20072;-80
2022/01/29 10:10:41;;;;;;;64.60;26.77;;;;;;;1.04;60.96;98789.69;5021309;28;20051;-80
2022/01/29 10:13:28;;;;;;;62.28;26.00;;;;;;;1.20;60.68;98822.38;5001086;28;20095;-78
2022/01/29 10:16:26;;;;;;;57.10;26.73;;;;;;;1.09;61.00;98787.22;5035810;28;20127;-82
2022/01/29 10:19:09;;;;;;;58.85;26.00;;;;;;;1.33;61.27;98813.13;5004472;28;20041;-81
2022/01/29 10:21:41;;;;;;;61.97;29.35;;;;;;;1.30;60.85;98796.84;5019660;28;20055;-81
2022/01/29 10:24:13;;;;;;;79.85;34.70;;;;;;;1.48;60.96;98803.91;5022597;28;20038;-80
2022/01/29 10:26:45;;;;;;;69.32;32.40;;;;;;;1.70;60.51;98812.72;5020147;28;20508;-84
2022/01/29 10:29:18;;;;;;;;;;;;;;;1.69;60.36;98816.13;5035747;28;20091;-83
2022/01/29 10:31:47;;;;;;;61.50;24.90;;;;;;;1.52;60.48;98802.25;5034394;28;20373;-80
2022/01/29 10:34:27;;;;;;;56.05;24.52;;;;;;;1.54;59.89;98810.81;5018815;28;20037;-81
2022/01/29 10:37:18;;;;;;;51.53;24.75;;;;;;;1.62;60.39;98807.50;5002340;28;20512;-81
2022/01/29 10:39:58;;;;;;;59.25;27.65;;;;;;;1.04;59.81;98767.50;5001298;28;20194;-81
2022/01/29 10:42:27;;;;;;;62.58;27.23;;;;;;;1.41;60.98;98809.81;5016893;28;20091;-79
2022/01/29 10:44:55;;;;;;;66.50;29.38;;;;;;;1.17;60.07;98791.59;5036010;28;20501;-80
2022/01/29 10:47:21;;;;;;;59.60;25.38;;;;;;;1.50;60.22;98797.94;5017179;28;20484;-80
2022/01/29 10:49:58;;;;;;;57.65;26.50;;;;;;;1.68;60.07;98793.88;5017762;28;20156;-81
2022/01/29 10:52:31;;;;;;;66.20;28.83;;;;;;;1.49;60.17;98801.34;5035291;28;20497;-83
2022/01/29 10:55:00;;;;;;;64.57;30.00;;;;;;;1.36;59.77;98761.06;5038257;28;20053;-81
2022/01/29 10:57:39;;;;;;;63.67;30.55;;;;;;;1.55;60.28;98804.84;5017112;28;20045;-82
2022/01/29 11:00:23;;;;;;;66.50;29.17;;;;;;;1.73;60.29;98805.06;5003954;28;20136;-77
2022/01/29 11:02:51;;;;;;;64.88;28.95;;;;;;;1.71;60.06;98782.81;5034860;28;20444;-79
2022/01/29 11:05:18;;;;;;;64.72;29.23;;;;;;;1.85;60.24;98794.06;4984683;28;20156;-80
2022/01/29 11:07:52;;;;;;;62.85;28.52;;;;;;;1.86;59.43;98800.06;5016030;28;20099;-80
2022/01/29 11:10:19;;;;;;;69.80;30.48;;;;;;;1.65;59.71;98756.25;5016695;28;20080;-79
2022/01/29 11:12:48;;;;;;;64.32;28.92;;;;;;;1.73;59.38;98788.81;5017673;28;20075;-79
2022/01/29 11:15:19;;;;;;;61.05;25.83;;;;;;;1.75;59.73;98790.53;5017299;28;20045;-79
2022/01/29 11:17:48;;;;;;;63.30;26.85;;;;;;;1.72;59.54;98784.53;4986809;28;20504;-80
2022/01/29 11:20:14;;;;;;;57.67;26.45;;;;;;;1.66;59.31;98772.47;5020593;28;20397;-78
2022/01/29 11:22:45;;;;;;;58.58;25.92;;;;;;;1.55;59.30;98784.34;5027843;28;20037;-79
2022/01/29 11:25:16;;;;;;;57.13;26.50;;;;;;;1.72;59.42;98800.75;5019338;28;20055;-83
2022/01/29 11:27:44;;;;;;;58.75;26.05;;;;;;;1.57;59.43;98757.00;5018485;28;20053;-81
2022/01/29 11:30:10;;;;;;;61.00;27.25;;;;;;;1.80;59.26;98791.44;5017419;28;20133;-82
2022/01/29 11:33:05;;;;;;;61.70;28.35;;;;;;;1.86;59.36;98789.81;5017985;28;20065;-79